createdAt,value
2018-06-04T00:02:07.765Z,100468.77
2018-06-04T00:04:35.968Z,100468.58
2018-06-04T00:07:04.132Z,100471.55
2018-06-04T00:09:32.390Z,100470.16
2018-06-04T00:12:00.806Z,100461.80
2018-06-04T00:14:29.117Z,100468.58
2018-06-04T00:16:57.362Z,100464.59
2018-06-04T00:19:25.514Z,100456.18
2018-06-04T00:21:53.538Z,100459.75
2018-06-04T00:24:22.372Z,100452.98
2018-06-04T00:26:50.424Z,100458.55
2018-06-04T00:29:18.480Z,100451.78
2018-06-04T00:31:46.549Z,100454.75
2018-06-04T00:34:14.583Z,100451.20
2018-06-04T00:36:49.669Z,100451.97
2018-06-04T00:39:17.708Z,100453.98
2018-06-04T00:41:45.755Z,100443.63
2018-06-04T00:44:13.934Z,100447.37
2018-06-04T00:46:41.975Z,100447.37
2018-06-04T00:49:10.050Z,100445.80
2018-06-04T00:51:38.292Z,100444.58
2018-06-04T00:54:06.505Z,100442.81
2018-06-04T00:56:34.797Z,100439.01
2018-06-04T00:59:02.944Z,100439.63
2018-06-04T01:01:31.401Z,100440.59
2018-06-04T01:03:59.429Z,100437.22
2018-06-04T01:06:27.448Z,100439.22
2018-06-04T01:08:55.484Z,100428.88
2018-06-04T01:11:23.515Z,100432.27
2018-06-04T01:13:51.591Z,100429.08
2018-06-04T01:16:19.620Z,100431.44
2018-06-04T01:18:47.667Z,100433.24
2018-06-04T01:21:15.700Z,100432.63
2018-06-04T01:23:43.723Z,100432.83
2018-06-04T01:26:12.040Z,100428.05
2018-06-04T01:28:40.079Z,100436.77
2018-06-04T01:31:08.096Z,100436.16
2018-06-04T01:33:36.212Z,100435.38
2018-06-04T01:36:04.255Z,100437.53
2018-06-04T01:38:32.295Z,100435.31
2018-06-04T01:41:00.393Z,100435.32
2018-06-04T01:43:28.427Z,100436.10
2018-06-04T01:45:56.462Z,100432.50
2018-06-04T01:48:24.497Z,100435.66
2018-06-04T01:50:52.560Z,100426.10
2018-06-04T01:53:20.616Z,100424.48
2018-06-04T01:55:48.660Z,100417.48
2018-06-04T01:58:16.707Z,100427.00
2018-06-04T02:00:45.101Z,100423.23
2018-06-04T02:03:13.304Z,100426.20
2018-06-04T02:05:41.355Z,100418.07
2018-06-04T02:08:09.384Z,100422.83
2018-06-04T02:10:37.429Z,100424.81
2018-06-04T02:13:05.469Z,100417.67
2018-06-04T02:15:33.491Z,100419.63
2018-06-04T02:18:01.528Z,100407.86
2018-06-04T02:20:29.582Z,100414.02
2018-06-04T02:22:57.640Z,100410.40
2018-06-04T02:25:25.806Z,100416.70
2018-06-04T02:27:53.887Z,100413.69
2018-06-04T02:30:22.017Z,100404.27
2018-06-04T02:32:50.140Z,100409.02
2018-06-04T02:35:18.200Z,100408.41
2018-06-04T02:37:46.284Z,100410.59
2018-06-04T02:40:14.371Z,100410.20
2018-06-04T02:42:42.424Z,100408.41
2018-06-04T02:45:10.573Z,100395.61
2018-06-04T02:47:38.773Z,100411.27
2018-06-04T02:50:06.981Z,100407.09
2018-06-04T02:52:35.254Z,100403.30
2018-06-04T02:55:03.418Z,100405.49
2018-06-04T02:57:31.663Z,100402.31
2018-06-04T02:59:59.989Z,100401.36
2018-06-04T03:02:28.154Z,100395.73
2018-06-04T03:04:56.232Z,100396.80
2018-06-04T03:07:24.425Z,100399.72
2018-06-04T03:09:52.536Z,100399.72
2018-06-04T03:12:20.588Z,100402.94
2018-06-04T03:14:48.665Z,100396.97
2018-06-04T03:17:16.703Z,100395.84
2018-06-04T03:19:44.779Z,100389.27
2018-06-04T03:22:12.839Z,100388.82
2018-06-04T03:24:40.920Z,100389.23
2018-06-04T03:27:08.996Z,100389.67
2018-06-04T03:29:37.152Z,100381.77
2018-06-04T03:32:05.314Z,100380.05
2018-06-04T03:34:33.442Z,100382.67
2018-06-04T03:37:01.775Z,100380.30
2018-06-04T03:39:30.022Z,100383.30
2018-06-04T03:41:58.249Z,100384.72
2018-06-04T03:44:26.724Z,100389.94
2018-06-04T03:46:54.907Z,100385.23
2018-06-04T03:49:23.003Z,100376.12
2018-06-04T03:51:51.107Z,100385.93
2018-06-04T03:54:19.183Z,100384.00
2018-06-04T03:56:47.262Z,100378.28
2018-06-04T03:59:15.518Z,100379.10
2018-06-04T04:01:43.585Z,100379.73
2018-06-04T04:04:11.615Z,100377.98
2018-06-04T04:06:39.664Z,100384.36
2018-06-04T04:09:09.184Z,100377.45
2018-06-04T04:11:37.252Z,100378.45
2018-06-04T04:14:05.548Z,100377.89
2018-06-04T04:16:33.571Z,100376.11
2018-06-04T04:19:01.620Z,100380.70
2018-06-04T04:21:29.668Z,100375.73
2018-06-04T04:23:57.911Z,100382.96
2018-06-04T04:26:25.972Z,100380.62
2018-06-04T04:28:54.012Z,100377.16
2018-06-04T04:31:22.316Z,100371.20
2018-06-04T04:33:50.384Z,100371.27
2018-06-04T04:36:18.427Z,100362.22
2018-06-04T04:38:46.484Z,100368.34
2018-06-04T04:41:14.543Z,100365.77
2018-06-04T04:43:42.588Z,100363.64
2018-06-04T04:46:10.649Z,100369.75
2018-06-04T04:48:38.685Z,100372.41
2018-06-04T04:51:07.053Z,100368.67
2018-06-04T04:53:35.112Z,100363.84
2018-06-04T04:56:03.176Z,100357.98
2018-06-04T04:58:31.228Z,100364.19
2018-06-04T05:00:59.269Z,100367.61
2018-06-04T05:03:30.387Z,100363.80
2018-06-04T05:05:58.440Z,100357.56
2018-06-04T05:08:26.502Z,100360.82
2018-06-04T05:10:54.943Z,100353.94
2018-06-04T05:13:23.015Z,100356.34
2018-06-04T05:15:51.075Z,100349.61
2018-06-04T05:18:19.138Z,100350.92
2018-06-04T05:20:47.172Z,100352.95
2018-06-04T05:23:15.344Z,100352.41
2018-06-04T05:25:43.384Z,100343.05
2018-06-04T05:28:11.421Z,100342.95
2018-06-04T05:30:39.485Z,100337.78
2018-06-04T05:33:07.523Z,100327.28
2018-06-04T05:35:35.573Z,100329.23
2018-06-04T05:38:03.640Z,100331.30
2018-06-04T05:40:31.695Z,100331.80
2018-06-04T05:42:59.745Z,100322.92
2018-06-04T05:45:27.796Z,100325.32
2018-06-04T05:47:55.955Z,100326.70
2018-06-04T05:50:23.983Z,100321.56
2018-06-04T05:52:52.032Z,100324.68
2018-06-04T05:55:20.076Z,100321.94
2018-06-04T05:57:48.108Z,100320.03
2018-06-04T06:00:16.199Z,100326.88
2018-06-04T06:02:44.245Z,100329.64
2018-06-04T06:05:12.317Z,100320.22
2018-06-04T06:07:40.727Z,100322.18
2018-06-04T06:10:08.776Z,100323.00
2018-06-04T06:12:36.811Z,100321.22
2018-06-04T06:15:04.889Z,100317.30
2018-06-04T06:17:32.942Z,100321.52
2018-06-04T06:20:01.068Z,100318.02
2018-06-04T06:22:29.202Z,100309.80
2018-06-04T06:24:57.268Z,100303.28
2018-06-04T06:27:25.300Z,100295.52
2018-06-04T06:29:53.348Z,100293.03
2018-06-04T06:32:21.461Z,100294.16
2018-06-04T06:34:49.509Z,100295.18
2018-06-04T06:37:17.571Z,100294.30
2018-06-04T06:39:45.665Z,100293.76
2018-06-04T06:42:13.716Z,100298.19
2018-06-04T06:44:43.480Z,100292.14
2018-06-04T06:47:11.585Z,100289.19
2018-06-04T06:49:39.645Z,100287.93
2018-06-04T06:52:07.691Z,100291.77
2018-06-04T06:54:35.770Z,100293.83
2018-06-04T06:57:03.841Z,100296.81
2018-06-04T06:59:31.908Z,100292.55
2018-06-04T07:01:59.985Z,100291.19
2018-06-04T07:04:28.099Z,100294.72
2018-06-04T07:06:56.183Z,100293.36
2018-06-04T07:09:24.637Z,100294.55
2018-06-04T07:11:52.775Z,100287.56
2018-06-04T07:14:20.898Z,100289.46
2018-06-04T07:16:48.972Z,100289.67
2018-06-04T07:19:17.012Z,100291.86
2018-06-04T07:21:45.099Z,100290.34
2018-06-04T07:24:13.217Z,100282.08
2018-06-04T07:26:41.462Z,100289.09
2018-06-04T07:29:09.440Z,100287.68
2018-06-04T07:31:37.489Z,100291.81
2018-06-04T07:34:06.049Z,100287.78
2018-06-04T07:36:36.189Z,100291.47
2018-06-04T07:39:06.613Z,100287.53
2018-06-04T07:41:34.891Z,100282.69
2018-06-04T07:44:02.928Z,100289.15
2018-06-04T07:46:31.119Z,100281.12
2018-06-04T07:48:59.196Z,100283.25
2018-06-04T07:51:27.852Z,100294.37
2018-06-04T07:53:56.116Z,100288.01
2018-06-04T07:56:24.337Z,100293.80
2018-06-04T07:58:52.401Z,100290.02
2018-06-04T08:01:20.453Z,100279.69
2018-06-04T08:03:48.539Z,100289.23
2018-06-04T08:06:18.702Z,100290.44
2018-06-04T08:08:46.695Z,100288.34
2018-06-04T08:11:14.744Z,100284.41
2018-06-04T08:13:42.809Z,100284.81
2018-06-04T08:16:10.962Z,100288.67
2018-06-04T08:18:39.339Z,100285.73
2018-06-04T08:21:07.364Z,100285.74
2018-06-04T08:23:35.420Z,100275.02
2018-06-04T08:26:03.912Z,100274.28
2018-06-04T08:28:32.080Z,100271.73
2018-06-04T08:31:00.289Z,100279.44
2018-06-04T08:33:28.637Z,100263.14
2018-06-04T08:35:56.753Z,100263.38
2018-06-04T08:38:25.476Z,100265.64
2018-06-04T08:40:53.559Z,100268.70
2018-06-04T08:43:21.839Z,100276.70
2018-06-04T08:45:50.097Z,100270.52
2018-06-04T08:48:18.257Z,100269.89
2018-06-04T08:50:46.288Z,100268.67
2018-06-04T08:53:14.328Z,100269.60
2018-06-04T08:55:42.435Z,100267.78
2018-06-04T08:58:10.545Z,100257.95
2018-06-04T09:00:38.584Z,100262.34
2018-06-04T09:03:06.659Z,100264.53
2018-06-04T09:05:34.700Z,100259.92
2018-06-04T09:08:02.900Z,100262.48
2018-06-04T09:10:30.976Z,100260.70
2018-06-04T09:12:59.171Z,100258.21
2018-06-04T09:15:27.228Z,100255.95
2018-06-04T09:17:55.276Z,100252.44
2018-06-04T09:20:23.445Z,100259.06
2018-06-04T09:22:51.587Z,100259.69
2018-06-04T09:25:19.665Z,100257.02
2018-06-04T09:27:47.764Z,100252.87
2018-06-04T09:30:15.799Z,100248.53
2018-06-04T09:32:44.009Z,100253.05
2018-06-04T09:35:12.069Z,100262.97
2018-06-04T09:37:40.273Z,100256.30
2018-06-04T09:40:08.308Z,100264.47
2018-06-04T09:42:36.417Z,100252.97
2018-06-04T09:45:04.513Z,100251.34
2018-06-04T09:47:32.721Z,100250.66
2018-06-04T09:50:00.804Z,100245.58
2018-06-04T09:52:29.109Z,100247.29
2018-06-04T09:54:57.176Z,100253.56
2018-06-04T09:57:25.223Z,100255.64
2018-06-04T09:59:53.320Z,100242.82
2018-06-04T10:02:21.517Z,100246.91
2018-06-04T10:04:49.592Z,100245.49
2018-06-04T10:07:17.638Z,100253.16
2018-06-04T10:09:45.835Z,100245.41
2018-06-04T10:12:14.095Z,100246.10
2018-06-04T10:14:42.756Z,100245.69
2018-06-04T10:17:10.817Z,100240.03
2018-06-04T10:19:38.876Z,100243.19
2018-06-04T10:22:06.964Z,100240.26
2018-06-04T10:24:35.078Z,100242.98
2018-06-04T10:27:03.344Z,100237.97
2018-06-04T10:29:31.412Z,100238.39
2018-06-04T10:31:59.530Z,100243.29
2018-06-04T10:34:27.576Z,100243.26
2018-06-04T10:36:55.644Z,100242.81
2018-06-04T10:39:23.708Z,100245.02
2018-06-04T10:41:51.755Z,100251.77
2018-06-04T10:44:19.970Z,100244.45
2018-06-04T10:46:48.012Z,100249.12
2018-06-04T10:49:16.171Z,100248.69
2018-06-04T10:51:44.216Z,100245.73
2018-06-04T10:54:12.569Z,100250.52
2018-06-04T10:56:40.620Z,100240.99
2018-06-04T10:59:08.732Z,100239.73
2018-06-04T11:01:36.813Z,100238.24
2018-06-04T11:04:04.914Z,100245.89
2018-06-04T11:06:33.053Z,100230.16
2018-06-04T11:09:01.174Z,100236.42
2018-06-04T11:11:29.257Z,100236.86
2018-06-04T11:13:57.389Z,100237.66
2018-06-04T11:16:25.497Z,100234.43
2018-06-04T11:18:53.605Z,100237.01
2018-06-04T11:21:21.680Z,100239.58
2018-06-04T11:23:49.719Z,100239.00
2018-06-04T11:26:17.792Z,100233.07
2018-06-04T11:28:45.932Z,100243.30
2018-06-04T11:31:13.992Z,100235.96
2018-06-04T11:33:42.317Z,100244.03
2018-06-04T11:36:10.380Z,100243.81
2018-06-04T11:38:38.416Z,100239.58
2018-06-04T11:41:06.993Z,100238.61
2018-06-04T11:43:35.081Z,100235.42
2018-06-04T11:46:03.174Z,100250.47
2018-06-04T11:48:31.329Z,100243.30
2018-06-04T11:50:59.561Z,100240.81
2018-06-04T11:53:27.757Z,100245.79
2018-06-04T11:55:56.200Z,100240.81
2018-06-04T11:58:24.282Z,100238.24
2018-06-04T12:00:52.384Z,100242.73
2018-06-04T12:03:20.463Z,100240.67
2018-06-04T12:05:48.630Z,100239.52
2018-06-04T12:08:16.990Z,100226.45
2018-06-04T12:10:45.084Z,100229.89
2018-06-04T12:13:13.180Z,100233.80
2018-06-04T12:15:41.296Z,100233.32
2018-06-04T12:18:09.385Z,100227.08
2018-06-04T12:20:37.458Z,100225.31
2018-06-04T12:23:05.828Z,100223.50
2018-06-04T12:25:34.272Z,100223.47
2018-06-04T12:28:03.088Z,100224.66
2018-06-04T12:30:31.199Z,100221.67
2018-06-04T12:32:59.266Z,100220.55
2018-06-04T12:35:27.431Z,100218.67
2018-06-04T12:37:55.559Z,100225.22
2018-06-04T12:40:23.988Z,100223.80
2018-06-04T12:42:52.164Z,100217.61
2018-06-04T12:45:20.248Z,100219.34
2018-06-04T12:47:48.281Z,100224.02
2018-06-04T12:50:16.472Z,100209.08
2018-06-04T12:52:44.503Z,100212.41
2018-06-04T12:55:12.888Z,100215.05
2018-06-04T12:57:40.930Z,100212.26
2018-06-04T13:00:09.119Z,100208.03
2018-06-04T13:02:38.707Z,100194.27
2018-06-04T13:05:06.740Z,100208.30
2018-06-04T13:07:35.275Z,100206.97
2018-06-04T13:10:03.372Z,100200.80
2018-06-04T13:12:31.484Z,100194.05
2018-06-04T13:14:59.531Z,100194.80
2018-06-04T13:17:27.890Z,100191.59
2018-06-04T13:19:56.059Z,100183.56
2018-06-04T13:22:24.104Z,100188.87
2018-06-04T13:24:52.197Z,100187.00
2018-06-04T13:27:20.339Z,100187.22
2018-06-04T13:29:48.468Z,100191.38
2018-06-04T13:32:16.496Z,100183.09
2018-06-04T13:34:45.363Z,100185.15
2018-06-04T13:37:13.909Z,100177.19
2018-06-04T13:39:41.980Z,100174.27
2018-06-04T13:42:10.032Z,100180.48
2018-06-04T13:44:38.246Z,100179.25
2018-06-04T13:47:06.326Z,100172.70
2018-06-04T13:49:34.518Z,100167.38
2018-06-04T13:52:02.640Z,100159.55
2018-06-04T13:54:30.813Z,100142.54
2018-06-04T13:56:58.876Z,100164.98
2018-06-04T13:59:28.020Z,100163.87
2018-06-04T14:01:56.172Z,100160.47
2018-06-04T14:04:25.803Z,100156.02
2018-06-04T14:06:53.851Z,100151.38
2018-06-04T14:09:21.896Z,100167.80
2018-06-04T14:11:50.072Z,100154.31
2018-06-04T14:14:18.119Z,100153.50
2018-06-04T14:16:46.184Z,100140.42
2018-06-04T14:19:14.266Z,100150.66
2018-06-04T14:21:42.311Z,100141.95
2018-06-04T14:24:10.379Z,100148.99
2018-06-04T14:26:38.431Z,100147.58
2018-06-04T14:29:06.564Z,100143.84
2018-06-04T14:31:34.604Z,100146.38
2018-06-04T14:34:02.681Z,100144.56
2018-06-04T14:36:30.784Z,100138.98
2018-06-04T14:38:59.111Z,100126.29
2018-06-04T14:41:27.156Z,100132.88
2018-06-04T14:43:55.250Z,100128.44
2018-06-04T14:46:23.317Z,100125.30
2018-06-04T14:48:51.349Z,100124.70
2018-06-04T14:51:19.709Z,100114.83
2018-06-04T14:53:47.795Z,100119.74
2018-06-04T14:56:15.866Z,100118.06
2018-06-04T14:58:43.969Z,100115.72
2018-06-04T15:01:12.033Z,100114.54
2018-06-04T15:03:40.143Z,100122.59
2018-06-04T15:06:08.225Z,100118.74
2018-06-04T15:08:36.407Z,100121.30
2018-06-04T15:11:04.522Z,100126.55
2018-06-04T15:13:32.660Z,100113.92
2018-06-04T15:16:00.989Z,100115.37
2018-06-04T15:18:29.796Z,100111.05
2018-06-04T15:20:58.343Z,100104.97
2018-06-04T15:23:26.489Z,100115.80
2018-06-04T15:25:54.634Z,100105.94
2018-06-04T15:28:22.742Z,100108.27
2018-06-04T15:30:50.854Z,100107.74
2018-06-04T15:33:19.177Z,100102.03
2018-06-04T15:35:47.512Z,100104.16
2018-06-04T15:38:15.665Z,100099.73
2018-06-04T15:40:43.724Z,100103.14
2018-06-04T15:43:11.856Z,100100.53
2018-06-04T15:45:39.928Z,100103.23
2018-06-04T15:48:08.019Z,100101.03
2018-06-04T15:50:36.088Z,100106.05
2018-06-04T15:53:04.150Z,100098.20
2018-06-04T15:55:32.568Z,100096.59
2018-06-04T15:58:00.608Z,100091.87
2018-06-04T16:00:28.669Z,100095.89
2018-06-04T16:02:56.721Z,100093.28
2018-06-04T16:05:24.772Z,99994.45
2018-06-04T16:07:52.808Z,100087.14
2018-06-04T16:10:21.144Z,100088.37
2018-06-04T16:12:49.199Z,100086.74
2018-06-04T16:15:17.322Z,100081.27
2018-06-04T16:17:45.410Z,100085.55
2018-06-04T16:20:13.455Z,100085.97
2018-06-04T16:22:41.488Z,100080.41
2018-06-04T16:25:09.530Z,100080.93
2018-06-04T16:27:37.980Z,100072.75
2018-06-04T16:30:06.110Z,100073.21
2018-06-04T16:32:34.240Z,100068.27
2018-06-04T16:35:02.456Z,100071.02
2018-06-04T16:37:30.635Z,100076.14
2018-06-04T16:39:58.728Z,100064.47
2018-06-04T16:42:26.788Z,100060.83
2018-06-04T16:44:54.881Z,100071.55
2018-06-04T16:47:22.929Z,100056.67
2018-06-04T16:49:51.065Z,100058.80
2018-06-04T16:52:19.169Z,100064.05
2018-06-04T16:54:47.249Z,100058.73
2018-06-04T16:57:15.315Z,100062.23
2018-06-04T16:59:43.366Z,100055.78
2018-06-04T17:02:14.001Z,100059.88
2018-06-04T17:04:42.372Z,100059.93
2018-06-04T17:07:10.628Z,100060.43
2018-06-04T17:09:38.925Z,100059.98
2018-06-04T17:12:07.185Z,100056.66
2018-06-04T17:14:35.636Z,100059.77
2018-06-04T17:17:04.339Z,100054.69
2018-06-04T17:19:33.703Z,100051.64
2018-06-04T17:22:02.547Z,100051.63
2018-06-04T17:24:30.813Z,100048.59
2018-06-04T17:26:58.956Z,100053.57
2018-06-04T17:29:27.154Z,100048.69
2018-06-04T17:31:55.833Z,100050.86
2018-06-04T17:34:23.892Z,100050.16
2018-06-04T17:36:54.090Z,100049.84
2018-06-04T17:39:22.223Z,100056.91
2018-06-04T17:41:50.291Z,100047.13
2018-06-04T17:44:18.468Z,100045.90
2018-06-04T17:46:46.533Z,100048.20
2018-06-04T17:49:14.632Z,100038.73
2018-06-04T17:51:42.911Z,100049.27
2018-06-04T17:54:11.099Z,100049.12
2018-06-04T17:56:39.555Z,100054.22
2018-06-04T17:59:08.095Z,100048.94
2018-06-04T18:01:44.151Z,100056.85
2018-06-04T18:04:12.213Z,100040.87
2018-06-04T18:06:40.455Z,100049.58
2018-06-04T18:09:10.522Z,100050.94
2018-06-04T18:11:38.643Z,100046.36
2018-06-04T18:14:06.805Z,100041.98
2018-06-04T18:16:35.155Z,100040.41
2018-06-04T18:19:03.876Z,100039.73
2018-06-04T18:21:32.247Z,100042.70
2018-06-04T18:24:00.376Z,100045.96
2018-06-04T18:26:29.034Z,100043.25
2018-06-04T18:28:57.194Z,100039.18
2018-06-04T18:31:25.301Z,100043.78
2018-06-04T18:33:53.667Z,100043.81
2018-06-04T18:36:21.911Z,100044.53
2018-06-04T18:38:50.179Z,100043.39
2018-06-04T18:41:18.469Z,100051.26
2018-06-04T18:43:46.523Z,100053.30
2018-06-04T18:46:14.607Z,100057.21
2018-06-04T18:48:42.688Z,100052.88
2018-06-04T18:51:10.792Z,100058.05
2018-06-04T18:53:38.983Z,100063.09
2018-06-04T18:56:07.064Z,100063.09
2018-06-04T18:58:35.175Z,100074.19
2018-06-04T19:01:03.334Z,100072.03
2018-06-04T19:03:31.608Z,100074.33
2018-06-04T19:05:59.910Z,100079.62
2018-06-04T19:08:28.070Z,100076.34
2018-06-04T19:10:56.168Z,100079.70
2018-06-04T19:13:31.179Z,100081.55
2018-06-04T19:15:59.377Z,100081.72
2018-06-04T19:18:27.500Z,100087.63
2018-06-04T19:20:55.713Z,100091.38
2018-06-04T19:23:23.889Z,100094.37
2018-06-04T19:25:52.023Z,100100.91
2018-06-04T19:28:20.076Z,100103.52
2018-06-04T19:30:48.220Z,100113.97
2018-06-04T19:33:16.385Z,100113.94
2018-06-04T19:35:44.831Z,100112.70
2018-06-04T19:38:13.561Z,100110.84
2018-06-04T19:40:42.188Z,100118.19
2018-06-04T19:43:10.533Z,100118.30
2018-06-04T19:45:38.935Z,100117.45
2018-06-04T19:48:07.856Z,100119.39
2018-06-04T19:50:35.991Z,100123.82
2018-06-04T19:53:05.386Z,100132.48
2018-06-04T19:55:34.011Z,100139.49
2018-06-04T19:58:02.206Z,100141.22
2018-06-04T20:00:30.408Z,100147.01
2018-06-04T20:02:59.294Z,100147.12
2018-06-04T20:05:27.359Z,100151.58
2018-06-04T20:07:55.515Z,100160.80
2018-06-04T20:10:23.570Z,100173.25
2018-06-04T20:12:51.887Z,100166.15
2018-06-04T20:15:20.215Z,100174.17
2018-06-04T20:17:48.424Z,100172.03
2018-06-04T20:20:16.519Z,100171.05
2018-06-04T20:22:44.715Z,100175.66
2018-06-04T20:25:12.783Z,100177.94
2018-06-04T20:27:40.827Z,100171.38
2018-06-04T20:30:08.900Z,100179.98
2018-06-04T20:32:36.963Z,100174.86
2018-06-04T20:35:05.118Z,100173.69
2018-06-04T20:37:33.515Z,100178.52
2018-06-04T20:40:01.579Z,100181.71
2018-06-04T20:42:29.687Z,100188.27
2018-06-04T20:44:57.788Z,100185.13
2018-06-04T20:47:25.835Z,100185.78
2018-06-04T20:49:53.916Z,100182.41
2018-06-04T20:52:21.971Z,100181.83
2018-06-04T20:54:50.032Z,100178.25
2018-06-04T20:57:18.097Z,100185.44
2018-06-04T20:59:46.147Z,100184.03
2018-06-04T21:02:14.198Z,100185.05
2018-06-04T21:04:42.256Z,100191.23
2018-06-04T21:07:11.456Z,100182.48
2018-06-04T21:09:39.553Z,100188.50
2018-06-04T21:12:07.632Z,100187.88
2018-06-04T21:14:35.753Z,100194.07
2018-06-04T21:17:03.839Z,100199.66
2018-06-04T21:19:31.996Z,100193.88
2018-06-04T21:22:00.067Z,100191.68
2018-06-04T21:24:28.183Z,100188.13
2018-06-04T21:26:56.304Z,100194.30
2018-06-04T21:29:24.381Z,100196.11
2018-06-04T21:31:52.436Z,100194.89
2018-06-04T21:34:20.506Z,100196.48
2018-06-04T21:36:48.574Z,100198.90
2018-06-04T21:39:16.952Z,100208.27
2018-06-04T21:41:45.007Z,100205.88
2018-06-04T21:44:13.084Z,100214.82
2018-06-04T21:46:41.531Z,100217.61
2018-06-04T21:49:10.140Z,100213.02
2018-06-04T21:51:38.245Z,100216.42
2018-06-04T21:54:06.471Z,100215.41
2018-06-04T21:56:34.705Z,100220.81
2018-06-04T21:59:02.855Z,100222.38
2018-06-04T22:01:30.919Z,100222.93
2018-06-04T22:03:58.972Z,100222.92
2018-06-04T22:06:27.011Z,100227.70
2018-06-04T22:08:55.054Z,100226.98
2018-06-04T22:11:23.115Z,100226.35
2018-06-04T22:13:51.215Z,100229.72
2018-06-04T22:16:19.248Z,100230.09
2018-06-04T22:18:47.307Z,100234.83
2018-06-04T22:21:15.370Z,100233.84
2018-06-04T22:23:43.427Z,100234.22
2018-06-04T22:26:11.477Z,100231.81
2018-06-04T22:28:39.795Z,100229.22
2018-06-04T22:31:07.839Z,100234.16
2018-06-04T22:33:35.911Z,100234.80
2018-06-04T22:36:04.191Z,100232.56
2018-06-04T22:38:32.420Z,100231.42
2018-06-04T22:41:00.472Z,100235.61
2018-06-04T22:43:28.549Z,100231.81
2018-06-04T22:45:56.587Z,100232.61
2018-06-04T22:48:24.631Z,100232.98
2018-06-04T22:50:52.688Z,100228.20
2018-06-04T22:53:20.751Z,100238.55
2018-06-04T22:55:48.822Z,100235.76
2018-06-04T22:58:16.886Z,100232.77
2018-06-04T23:00:44.924Z,100233.78
2018-06-04T23:03:12.984Z,100223.64
2018-06-04T23:05:41.035Z,100227.40
2018-06-04T23:08:09.082Z,100220.22
2018-06-04T23:10:37.151Z,100222.42
2018-06-04T23:13:05.199Z,100223.22
2018-06-04T23:15:33.267Z,100222.42
2018-06-04T23:18:01.355Z,100227.63
2018-06-04T23:20:29.693Z,100228.86
2018-06-04T23:22:57.780Z,100222.44
2018-06-04T23:25:25.838Z,100229.22
2018-06-04T23:27:53.977Z,100226.61
2018-06-04T23:30:22.086Z,100221.84
2018-06-04T23:32:50.181Z,100221.82
2018-06-04T23:35:18.552Z,100220.20
2018-06-04T23:37:46.611Z,100216.83
2018-06-04T23:40:14.647Z,100216.40
2018-06-04T23:42:42.722Z,100213.59
2018-06-04T23:45:10.763Z,100213.98
2018-06-04T23:47:38.835Z,100213.81
2018-06-04T23:50:07.019Z,100216.42
2018-06-04T23:52:35.114Z,100213.83
2018-06-04T23:55:03.572Z,100212.43
2018-06-04T23:57:31.821Z,100209.22
2018-06-04T23:59:59.986Z,100207.65
